Aérodrome :
LOGIN :

S'inscrire | Disclaimer

   EN    FR    IT 

 










Légende :    VFR   VFR Marginal   IFR   IFR Intensif   IFR Très Intensif
Visi : 
Plafond : 
>= 8 km
>= 3000ft
5 à 8 km
1000 à 3000 ft
1500m à 5 km
500 à 1000 ft
800 à 1500m
200 à 500 ft
< 800m
< 200 ft
Symboles :   Orages  Brouillard  Fortes neiges  Fortes précipitations  Vent > 20 kt
SIGMETs :   Divers  Orages  Givrage  Turbulence  Onde Orograph.  Cendres Volcan.






- Altitude de l'aérodrome : 465 ft
- Code IATA : LEJ


EDDP - Leipzig Halle

DERNIER METAR :
  • 301950Z 36004KT 9999 SCT015 BKN039 02/00 Q1025 TEMPO BKN013

METARs EXPIRÉS :
  • 301920Z 33005KT 300V360 9999 BKN015 BKN043 02/M00 Q1025 TEMPO BKN013
  • 301850Z 33006KT 9999 BKN015 02/M00 Q1025 TEMPO BKN013
  • 301820Z 31006KT 9999 SCT015 BKN022 02/M00 Q1025 TEMPO BKN013
  • 301750Z 32006KT 9999 SCT013 BKN023 03/M00 Q1025 TEMPO BKN013
  • 301720Z 33006KT 9999 SCT013 BKN021 02/00 Q1025 TEMPO BKN013

TAF TAF EDDP
Valide du 30 à 18h jusqu'au 31 à 18h UTC


301700Z 3018/3118 33007KT 9999 BKN020
BECMG 3019/3023 BKN013
TEMPO 3022/3106 BKN008
BECMG 3022/3101 03007KT
BECMG 3106/3108 SCT030
BECMG 3115/3118 VRB03KT



MET'MAP, la Météo Aéronautique d'un coup d'oeil ! - Copyright ORBIFLY Décembre 2007 - Disclaimer

ORBIFLY MET'MAP TEAM :

Programmation & Développement : Alexandra Zaïnal
Sur une idée originale de : Baudouin d'Aumeries
Assistance à la programmation : Marc-Olivier Méhu
Soutien technique & logistique : Manuel Goepfert

Contact : metmap@orbifly.com




SOURCES & CREDITS :

   NOAA